Penkridge, United Kingdom
Current Conditions -  °F | °C
As of 9:50 AM on Friday 31 Oct 2014 (Local Time) from EGOS Reporting Station
Haze Haze  
Wind Chill: 61°   Ceiling: 22000
Heat Index: 61°   Visibility: 6mi
Dew Point: 57°   Wind: 12mph
Humidity: 88%   Direction: 160°SSE
Pressure: 29.91"   Gusts: NA
Location:  52.73°N, 2.12°W
Report Text: EGOS 310950Z 16010KT 9000 HZ FEW013 SCT160 BKN220 16/14 Q1013 BLU NOSIG
Loading
Personal Weather Stations






























Interactive Weather Map
Tropical Storm Tracking
New forecast layout! Learn more

10-Day Weather Forecast

Advertisements
Track Severe Weather on mobile